Olympia, Kentucky
Current Conditions -  °F | °C
As of 1:10 PM on Monday 22 Dec 2014 (Local Time) from KSYM Reporting Station
Broken Clouds Broken Clouds  
Wind Chill: 54°   Ceiling: 3800
Heat Index: 54°   Visibility: 10mi
Dew Point: 37°   Wind: 3mph
Humidity: 54%   Direction: NA
Pressure: 29.94"   Gusts: NA
Location:  38.1°N, 83.7°W
Report Text: KSYM 221810Z AUTO VRB03KT 10SM BKN038 12/03 A2994 RMK AO2
Loading
Personal Weather Stations






























Interactive Weather Map New forecast layout! Learn more

10-Day Weather Forecast

Advertisements
Track Severe Weather on mobile